Aktualne dane pomiarowe

Uwaga, wersja testowa! Automatyczne pobieranie danych za pomocą narzędzi lub skryptów to umożliwiających jest zabronione.

Dane meteo z obszaru Polski uzyskane na podstawie depesz SYNOP pobieranych co godzinę z NWS. Najedź myszką na symbol przedstawiony w tabeli, aby uzyskać informacje co do jego znaczenia. Prosimy pamiętać, że to testowa wersja strony, która jeszcze nie jest ukończona. Stworzono również jest krótki FAQ dotyczący korzystania z tej podstrony Anomalie temperatury w chwili obecnej odniesione są do okresu referencyjnego 1951-2016. Okres ten będzie później zmieniony na 1981-2010. Kliknij ikonę aby pobrać plik CSV. Kliknij ikonę aby wygenerować mapę synoptyczną dla danego terminu.

Wybierz Datę:    

        

Radom (12485)

Dane terminowe dla wybranej stacji. Kliknij datę, aby otrzymać dane z tego terminu dla wszystkich stacji.

TemperaturaZachmurzenieWiatrCiśnienieOpadyPogoda
 Data t td wb tx tn tg rh  Nt Nl Cl Cm Ch ws wd g1 g2 wx mslp ppp ch 24h 12h t ww ww w1 w2  
2019-08-08 23:00:00 15.5 11.9 13.1--- 7910.0wx-wx3wx---1012.6 990.8 0.8---------
2019-08-08 22:00:00 17.1 12.4 14.0--- 7410.0wx-wxwx2wx---1012.2 990.5 0.6---------
2019-08-08 21:00:00 17.3 12.2 14.0--- 7210.0wx-wx2wx---1011.9 990.2 0.6---------
2019-08-08 20:00:00 18.9 13.3 15.3--- 7010.0wx-wxwx2wx---1011.5 990.0 0.7---------
2019-08-08 19:00:00 19.3 12.1 14.8--- 6310.0wx-wxwx3wx---1011.4 989.9 0.6---------
2019-08-08 18:00:00 21.5 11.5 15.4--- 5310.0wx-wxwx2wx---1010.9 989.6 0.2---------
2019-08-08 17:00:00 24.5 10.1 16.0--- 4010.0wxwxwxwx4wx---1010.4 989.3 0.1---------
2019-08-08 16:00:00 25.4 10.5 16.6--- 3910.0wxwxwxwx4wx---1010.2 989.2 0.2---------
2019-08-08 15:00:00 25.5 9.8 16.3--- 3710.0wxwxwxwx6wx---1010.4 989.4 0.5---------
2019-08-08 14:00:00 25.0 10.5 16.4--- 4010.0wxwxwxwx6wx---1010.0 989.0 0.9---------
2019-08-08 13:00:00 25.6 10.3 16.6--- 3810.0wxwxwxwxwx7wx---1010.0 989.0 0.9---------
2019-08-08 12:00:00 24.9 10.8 16.5--- 4110.0wxwxwxwx7wx---1010.0 988.9 1.4---------
2019-08-08 11:00:00 24.2 12.5 17.0--- 4810.0wxwxwxwx8wx---1009.7 988.6 1.3---------
2019-08-08 10:00:00 23.8 12.5 16.8--- 4910.0wxwxwxwx8wx---1009.2 988.1 1.5---------
2019-08-08 09:00:00 22.6 13.9 17.1--- 5810.0wxwxwx7wx---1008.7 987.5 1.6---------
2019-08-08 08:00:00 20.5 15.3 17.0--- 7210.0wxwxwx7wx---1008.6 987.3 2.6---------
2019-08-08 07:00:00 20.2 16.1 17.4--- 7710.0wxwxwx7wx---1008.0 986.6 2.4---------
2019-08-08 06:00:00 18.8 17.1 17.6--- 9010.0wxwxwx5wx---1007.4 986.0 2.1---------
2019-08-08 05:00:00 18.4 16.9 17.3--- 9110.0wxwxwx7wx---1006.2 984.8 1.0---------
2019-08-08 04:00:00 18.6 17.6 17.9--- 9410.0wxwxwx5wx---1005.6 984.2 0.0---------
2019-08-08 03:00:00 18.7 17.9 18.1--- 9510.0wxwxwxwx4wx---1005.3 983.9 -0.4---wx-w1w2--
2019-08-08 02:00:00 18.7 17.9 18.1--- 958.0wxwxwx4wx---1005.3 983.9 0.7---wx-w1w2--
2019-08-08 01:00:00 18.8 17.8 18.1--- 9410.0wxwxwx4wx---1005.6 984.2 0.1---wx-w1w2--
2019-08-08 00:00:00 18.7 17.2 17.6--- 9110.0wxwxwxwx2wx---1005.7 984.3 0.2---wx-w1w2--
2019-08-07 23:00:00 20.0 18.0 18.6--- 8810.0wxwxwxwx6wx---1005.9 984.6 -0.1---wx---
2019-08-07 22:00:00 19.6 18.1 18.5--- 9110.0wxwxwxwx2wx---1005.4 984.1 -1.0---------
2019-08-07 21:00:00 19.5 17.6 18.1--- 8910.0wxwxwxwx2wx---1005.5 984.1 -1.3---------
2019-08-07 20:00:00 19.7 17.3 18.0--- 8610.0wxwxwxwx3wx---1005.8 984.5 -1.1---------
2019-08-07 19:00:00 20.9 16.7 18.0--- 7710.0wxwxwxwx3wx---1006.4 985.1 -0.9---------
2019-08-07 18:00:00 22.0 16.1 18.0--- 6910.0wxwxwxwx3wx---1006.6 985.4 -0.9---------
2019-08-07 17:00:00 25.0 17.0 19.7--- 6110.0wxwxwxwx3wx---1006.6 985.6 -1.0---------
2019-08-07 16:00:00 25.4 15.4 19.0--- 5410.0wx-wxwx3wx---1007.0 986.0 -0.8---------
2019-08-07 15:00:00 25.9 15.6 19.3--- 5310.0wx-wxwx2wx---1007.1 986.2 -1.2---------
2019-08-07 14:00:00 25.1 15.5 18.9--- 5510.0wx-wxwx4wx---1007.6 986.6 -1.0---------
2019-08-07 13:00:00 24.3 17.1 19.5--- 6410.0wx-wxwx4wx---1007.9 986.8 -0.9---wx-w2--
2019-08-07 12:00:00 24.3 16.6 19.2--- 6210.0wxwxwxwxwx4wx---1008.5 987.4 -0.2---wx---
2019-08-07 11:00:00 25.5 15.0 18.8--- 5210.0wx-wxwx4wx---1008.6 987.6 0.1---------
2019-08-07 10:00:00 25.9 15.9 19.4--- 5410.0wx-wxwx3wx---1008.7 987.7 0.4---------
2019-08-07 09:00:00 25.3 15.9 19.2--- 5610.0wx-wxwx4wx---1008.6 987.6 0.2---------
2019-08-07 08:00:00 24.2 16.2 18.9--- 6110.0wx-wxwx3wx---1008.6 987.5 0.1---------
2019-08-07 07:00:00 22.8 16.1 18.3--- 6610.0wx-wxwx3wx---1008.4 987.2 -0.3---------
2019-08-07 06:00:00 21.6 16.1 17.9--- 7110.0wx-wxwx3wx---1008.7 987.4 0.5---------
2019-08-07 05:00:00 19.8 16.3 17.4--- 8010.0wx-wxwx2wx---1008.9 987.5 0.2---------
2019-08-07 04:00:00 18.1 15.9 16.5--- 8710.0wx-wxwx4wx---1009.0 987.5 0.1---------
2019-08-07 03:00:00 17.8 15.5 16.2--- 8610.0wx-wx3wx---1008.5 987.0 -0.3---------
2019-08-07 02:00:00 19.0 16.1 17.0--- 8310.0wx-wx2wx---1008.8 987.3 -0.2---------
2019-08-07 01:00:00 19.8 15.9 17.1--- 7810.0wx-wx0----1008.8 987.4 -0.3---------
2019-08-07 00:00:00 19.7 16.2 17.3--- 8010.0wx-wx3wx---1008.7 987.3 -0.3---------
3.9 ms

 

Print Friendly, PDF & Email